sensor_id;sensor_type;location;lat;lon;timestamp;P1;durP1;ratioP1;P2;durP2;ratioP2
5026;SDS011;2532;52.480;13.354;2023-01-19T00:00:36;21.33;;;10.90;;
5026;SDS011;2532;52.480;13.354;2023-01-19T00:03:04;24.53;;;10.83;;
5026;SDS011;2532;52.480;13.354;2023-01-19T00:05:39;23.30;;;12.43;;
5026;SDS011;2532;52.480;13.354;2023-01-19T00:08:07;17.77;;;11.83;;
5026;SDS011;2532;52.480;13.354;2023-01-19T00:10:39;20.80;;;12.43;;
5026;SDS011;2532;52.480;13.354;2023-01-19T00:13:07;21.50;;;12.40;;
5026;SDS011;2532;52.480;13.354;2023-01-19T00:15:34;23.30;;;10.93;;
5026;SDS011;2532;52.480;13.354;2023-01-19T00:18:01;23.63;;;13.23;;
5026;SDS011;2532;52.480;13.354;2023-01-19T00:20:29;21.83;;;13.33;;
5026;SDS011;2532;52.480;13.354;2023-01-19T00:22:59;24.20;;;13.87;;
5026;SDS011;2532;52.480;13.354;2023-01-19T00:25:26;24.57;;;13.60;;
5026;SDS011;2532;52.480;13.354;2023-01-19T00:27:53;23.97;;;13.63;;
5026;SDS011;2532;52.480;13.354;2023-01-19T00:30:20;30.67;;;14.33;;
5026;SDS011;2532;52.480;13.354;2023-01-19T00:32:47;20.67;;;13.80;;
5026;SDS011;2532;52.480;13.354;2023-01-19T00:35:14;27.77;;;14.23;;
5026;SDS011;2532;52.480;13.354;2023-01-19T00:37:42;21.37;;;13.60;;
5026;SDS011;2532;52.480;13.354;2023-01-19T00:40:10;20.90;;;13.30;;
5026;SDS011;2532;52.480;13.354;2023-01-19T00:42:38;21.37;;;11.47;;
5026;SDS011;2532;52.480;13.354;2023-01-19T00:45:09;23.07;;;14.20;;
5026;SDS011;2532;52.480;13.354;2023-01-19T00:47:37;22.87;;;13.97;;
5026;SDS011;2532;52.480;13.354;2023-01-19T00:50:05;27.63;;;14.37;;
5026;SDS011;2532;52.480;13.354;2023-01-19T00:52:32;21.30;;;14.20;;
5026;SDS011;2532;52.480;13.354;2023-01-19T00:55:00;22.67;;;14.10;;
5026;SDS011;2532;52.480;13.354;2023-01-19T00:57:27;23.47;;;13.20;;
5026;SDS011;2532;52.480;13.354;2023-01-19T00:59:54;24.53;;;13.30;;
5026;SDS011;2532;52.480;13.354;2023-01-19T01:02:21;21.83;;;13.70;;
5026;SDS011;2532;52.480;13.354;2023-01-19T01:04:48;22.47;;;13.43;;
5026;SDS011;2532;52.480;13.354;2023-01-19T01:07:19;26.40;;;14.00;;
5026;SDS011;2532;52.480;13.354;2023-01-19T01:09:46;21.20;;;11.57;;
5026;SDS011;2532;52.480;13.354;2023-01-19T01:12:14;22.23;;;13.80;;
5026;SDS011;2532;52.480;13.354;2023-01-19T01:14:41;26.10;;;14.60;;
5026;SDS011;2532;52.480;13.354;2023-01-19T01:17:08;24.07;;;12.90;;
5026;SDS011;2532;52.480;13.354;2023-01-19T01:19:38;23.40;;;13.50;;
5026;SDS011;2532;52.480;13.354;2023-01-19T01:22:05;22.70;;;12.87;;
5026;SDS011;2532;52.480;13.354;2023-01-19T01:24:32;22.80;;;13.60;;
5026;SDS011;2532;52.480;13.354;2023-01-19T01:26:59;28.60;;;14.20;;
5026;SDS011;2532;52.480;13.354;2023-01-19T01:29:28;22.37;;;12.70;;
5026;SDS011;2532;52.480;13.354;2023-01-19T01:31:55;24.10;;;13.63;;
5026;SDS011;2532;52.480;13.354;2023-01-19T01:34:23;22.93;;;13.03;;
5026;SDS011;2532;52.480;13.354;2023-01-19T01:36:50;24.57;;;12.67;;
5026;SDS011;2532;52.480;13.354;2023-01-19T01:39:18;20.20;;;12.17;;
5026;SDS011;2532;52.480;13.354;2023-01-19T01:41:48;23.43;;;15.30;;
5026;SDS011;2532;52.480;13.354;2023-01-19T01:47:16;18.93;;;12.33;;
5026;SDS011;2532;52.480;13.354;2023-01-19T01:49:47;21.80;;;13.50;;
5026;SDS011;2532;52.480;13.354;2023-01-19T01:52:16;23.40;;;13.80;;
5026;SDS011;2532;52.480;13.354;2023-01-19T01:54:44;22.17;;;14.20;;
5026;SDS011;2532;52.480;13.354;2023-01-19T01:57:11;26.83;;;13.30;;
5026;SDS011;2532;52.480;13.354;2023-01-19T01:59:39;27.20;;;14.53;;
5026;SDS011;2532;52.480;13.354;2023-01-19T02:02:10;26.37;;;14.23;;
5026;SDS011;2532;52.480;13.354;2023-01-19T02:05:00;20.53;;;12.13;;
5026;SDS011;2532;52.480;13.354;2023-01-19T02:07:32;23.50;;;13.90;;
5026;SDS011;2532;52.480;13.354;2023-01-19T02:10:20;23.60;;;13.50;;
5026;SDS011;2532;52.480;13.354;2023-01-19T02:13:05;18.93;;;12.43;;
5026;SDS011;2532;52.480;13.354;2023-01-19T02:15:45;23.67;;;13.27;;
5026;SDS011;2532;52.480;13.354;2023-01-19T02:18:15;27.63;;;14.20;;
5026;SDS011;2532;52.480;13.354;2023-01-19T02:20:44;19.30;;;12.83;;
5026;SDS011;2532;52.480;13.354;2023-01-19T02:23:33;27.23;;;14.17;;
5026;SDS011;2532;52.480;13.354;2023-01-19T02:26:04;21.67;;;12.70;;
5026;SDS011;2532;52.480;13.354;2023-01-19T02:28:33;21.93;;;14.03;;
5026;SDS011;2532;52.480;13.354;2023-01-19T02:31:04;23.00;;;13.43;;
5026;SDS011;2532;52.480;13.354;2023-01-19T02:33:31;24.13;;;13.37;;
5026;SDS011;2532;52.480;13.354;2023-01-19T02:35:58;21.07;;;12.93;;
5026;SDS011;2532;52.480;13.354;2023-01-19T02:38:27;26.53;;;12.97;;
5026;SDS011;2532;52.480;13.354;2023-01-19T02:40:56;20.50;;;12.77;;
5026;SDS011;2532;52.480;13.354;2023-01-19T02:43:26;23.20;;;13.80;;
5026;SDS011;2532;52.480;13.354;2023-01-19T02:45:56;29.57;;;14.53;;
5026;SDS011;2532;52.480;13.354;2023-01-19T02:48:23;22.23;;;13.87;;
5026;SDS011;2532;52.480;13.354;2023-01-19T02:50:50;22.20;;;13.43;;
5026;SDS011;2532;52.480;13.354;2023-01-19T02:53:28;24.37;;;14.70;;
5026;SDS011;2532;52.480;13.354;2023-01-19T02:56:32;26.03;;;15.47;;
5026;SDS011;2532;52.480;13.354;2023-01-19T02:59:05;22.10;;;14.53;;
5026;SDS011;2532;52.480;13.354;2023-01-19T03:01:44;24.30;;;14.73;;
5026;SDS011;2532;52.480;13.354;2023-01-19T03:04:20;20.20;;;13.53;;
5026;SDS011;2532;52.480;13.354;2023-01-19T03:06:54;22.57;;;14.00;;
5026;SDS011;2532;52.480;13.354;2023-01-19T03:09:28;27.50;;;15.17;;
5026;SDS011;2532;52.480;13.354;2023-01-19T03:12:04;28.17;;;14.50;;
5026;SDS011;2532;52.480;13.354;2023-01-19T03:14:38;24.77;;;16.00;;
5026;SDS011;2532;52.480;13.354;2023-01-19T03:17:08;23.73;;;14.90;;
5026;SDS011;2532;52.480;13.354;2023-01-19T03:19:40;25.27;;;15.00;;
5026;SDS011;2532;52.480;13.354;2023-01-19T03:22:09;25.60;;;15.53;;
5026;SDS011;2532;52.480;13.354;2023-01-19T03:24:39;26.07;;;14.90;;
5026;SDS011;2532;52.480;13.354;2023-01-19T03:27:11;22.77;;;15.77;;
5026;SDS011;2532;52.480;13.354;2023-01-19T03:29:41;23.67;;;14.50;;
5026;SDS011;2532;52.480;13.354;2023-01-19T03:32:14;30.17;;;16.83;;
5026;SDS011;2532;52.480;13.354;2023-01-19T03:34:43;27.00;;;15.40;;
5026;SDS011;2532;52.480;13.354;2023-01-19T03:37:12;29.53;;;15.77;;
5026;SDS011;2532;52.480;13.354;2023-01-19T03:39:40;26.10;;;15.57;;
5026;SDS011;2532;52.480;13.354;2023-01-19T03:42:10;27.83;;;15.50;;
5026;SDS011;2532;52.480;13.354;2023-01-19T03:44:39;42.73;;;17.13;;
5026;SDS011;2532;52.480;13.354;2023-01-19T03:47:09;27.00;;;14.70;;
5026;SDS011;2532;52.480;13.354;2023-01-19T03:49:38;24.37;;;16.40;;
5026;SDS011;2532;52.480;13.354;2023-01-19T03:52:08;29.73;;;17.93;;
5026;SDS011;2532;52.480;13.354;2023-01-19T03:54:35;27.00;;;15.87;;
5026;SDS011;2532;52.480;13.354;2023-01-19T03:57:02;26.83;;;17.00;;
5026;SDS011;2532;52.480;13.354;2023-01-19T03:59:30;27.70;;;16.83;;
5026;SDS011;2532;52.480;13.354;2023-01-19T04:01:58;25.63;;;16.27;;
5026;SDS011;2532;52.480;13.354;2023-01-19T04:04:25;31.50;;;17.63;;
5026;SDS011;2532;52.480;13.354;2023-01-19T04:06:52;30.53;;;17.70;;
5026;SDS011;2532;52.480;13.354;2023-01-19T04:09:19;28.33;;;17.60;;
5026;SDS011;2532;52.480;13.354;2023-01-19T04:11:46;28.83;;;16.20;;
5026;SDS011;2532;52.480;13.354;2023-01-19T04:14:13;28.43;;;17.67;;
5026;SDS011;2532;52.480;13.354;2023-01-19T04:16:41;25.93;;;16.07;;
5026;SDS011;2532;52.480;13.354;2023-01-19T04:19:08;28.23;;;16.33;;
5026;SDS011;2532;52.480;13.354;2023-01-19T04:21:35;30.20;;;17.50;;
5026;SDS011;2532;52.480;13.354;2023-01-19T04:24:02;30.87;;;17.50;;
5026;SDS011;2532;52.480;13.354;2023-01-19T04:26:29;24.00;;;15.77;;
5026;SDS011;2532;52.480;13.354;2023-01-19T04:28:56;29.70;;;17.03;;
5026;SDS011;2532;52.480;13.354;2023-01-19T04:31:23;26.20;;;17.20;;
5026;SDS011;2532;52.480;13.354;2023-01-19T04:33:52;24.77;;;15.60;;
5026;SDS011;2532;52.480;13.354;2023-01-19T04:36:20;26.17;;;15.30;;
5026;SDS011;2532;52.480;13.354;2023-01-19T04:38:47;27.20;;;15.33;;
5026;SDS011;2532;52.480;13.354;2023-01-19T04:41:14;27.90;;;17.37;;
5026;SDS011;2532;52.480;13.354;2023-01-19T04:43:41;25.80;;;16.90;;
5026;SDS011;2532;52.480;13.354;2023-01-19T04:46:08;23.10;;;16.00;;
5026;SDS011;2532;52.480;13.354;2023-01-19T04:48:35;25.60;;;15.77;;
5026;SDS011;2532;52.480;13.354;2023-01-19T04:51:03;26.17;;;15.67;;
5026;SDS011;2532;52.480;13.354;2023-01-19T04:53:30;26.17;;;15.80;;
5026;SDS011;2532;52.480;13.354;2023-01-19T04:55:57;27.83;;;16.10;;
5026;SDS011;2532;52.480;13.354;2023-01-19T04:58:25;29.70;;;16.43;;
5026;SDS011;2532;52.480;13.354;2023-01-19T05:00:52;26.27;;;15.90;;
5026;SDS011;2532;52.480;13.354;2023-01-19T05:03:19;29.83;;;15.83;;
5026;SDS011;2532;52.480;13.354;2023-01-19T05:05:46;25.40;;;16.93;;
5026;SDS011;2532;52.480;13.354;2023-01-19T05:08:14;25.40;;;17.17;;
5026;SDS011;2532;52.480;13.354;2023-01-19T05:10:41;22.40;;;15.30;;
5026;SDS011;2532;52.480;13.354;2023-01-19T05:13:08;28.40;;;15.27;;
5026;SDS011;2532;52.480;13.354;2023-01-19T05:15:35;26.13;;;14.97;;
5026;SDS011;2532;52.480;13.354;2023-01-19T05:18:01;28.87;;;16.03;;
5026;SDS011;2532;52.480;13.354;2023-01-19T05:20:28;27.03;;;15.90;;
5026;SDS011;2532;52.480;13.354;2023-01-19T05:22:55;25.50;;;17.00;;
5026;SDS011;2532;52.480;13.354;2023-01-19T05:25:24;24.43;;;15.87;;
5026;SDS011;2532;52.480;13.354;2023-01-19T05:27:51;24.50;;;16.00;;
5026;SDS011;2532;52.480;13.354;2023-01-19T05:30:18;24.10;;;16.00;;
5026;SDS011;2532;52.480;13.354;2023-01-19T05:32:45;26.70;;;15.90;;
5026;SDS011;2532;52.480;13.354;2023-01-19T05:35:12;27.30;;;17.03;;
5026;SDS011;2532;52.480;13.354;2023-01-19T05:37:40;24.03;;;14.83;;
5026;SDS011;2532;52.480;13.354;2023-01-19T05:40:08;26.90;;;16.00;;
5026;SDS011;2532;52.480;13.354;2023-01-19T05:42:37;23.90;;;15.73;;
5026;SDS011;2532;52.480;13.354;2023-01-19T05:45:05;26.00;;;16.23;;
5026;SDS011;2532;52.480;13.354;2023-01-19T05:47:33;25.50;;;16.07;;
5026;SDS011;2532;52.480;13.354;2023-01-19T05:50:00;26.33;;;16.23;;
5026;SDS011;2532;52.480;13.354;2023-01-19T05:52:26;25.30;;;15.87;;
5026;SDS011;2532;52.480;13.354;2023-01-19T05:54:53;26.00;;;15.00;;
5026;SDS011;2532;52.480;13.354;2023-01-19T05:57:20;29.00;;;17.30;;
5026;SDS011;2532;52.480;13.354;2023-01-19T05:59:49;24.60;;;15.37;;
5026;SDS011;2532;52.480;13.354;2023-01-19T06:02:16;27.70;;;15.70;;
5026;SDS011;2532;52.480;13.354;2023-01-19T06:04:43;28.90;;;16.17;;
5026;SDS011;2532;52.480;13.354;2023-01-19T06:07:10;25.47;;;15.10;;
5026;SDS011;2532;52.480;13.354;2023-01-19T06:09:37;22.07;;;15.50;;
5026;SDS011;2532;52.480;13.354;2023-01-19T06:12:04;25.27;;;15.90;;
5026;SDS011;2532;52.480;13.354;2023-01-19T06:14:31;28.63;;;16.27;;
5026;SDS011;2532;52.480;13.354;2023-01-19T06:17:02;28.40;;;17.50;;
5026;SDS011;2532;52.480;13.354;2023-01-19T06:19:30;26.70;;;16.23;;
5026;SDS011;2532;52.480;13.354;2023-01-19T06:21:57;27.87;;;16.70;;
5026;SDS011;2532;52.480;13.354;2023-01-19T06:24:24;26.40;;;15.70;;
5026;SDS011;2532;52.480;13.354;2023-01-19T06:26:52;27.40;;;15.03;;
5026;SDS011;2532;52.480;13.354;2023-01-19T06:29:19;26.70;;;15.80;;
5026;SDS011;2532;52.480;13.354;2023-01-19T06:31:47;24.20;;;15.17;;
5026;SDS011;2532;52.480;13.354;2023-01-19T06:34:15;34.60;;;19.70;;
5026;SDS011;2532;52.480;13.354;2023-01-19T06:36:43;26.40;;;15.83;;
5026;SDS011;2532;52.480;13.354;2023-01-19T06:39:10;25.37;;;14.93;;
5026;SDS011;2532;52.480;13.354;2023-01-19T06:41:37;26.37;;;15.27;;
5026;SDS011;2532;52.480;13.354;2023-01-19T06:44:04;25.90;;;15.40;;
5026;SDS011;2532;52.480;13.354;2023-01-19T06:46:32;26.93;;;17.40;;
5026;SDS011;2532;52.480;13.354;2023-01-19T06:48:59;26.47;;;17.17;;
5026;SDS011;2532;52.480;13.354;2023-01-19T06:51:28;30.53;;;17.33;;
5026;SDS011;2532;52.480;13.354;2023-01-19T06:53:55;28.63;;;18.50;;
5026;SDS011;2532;52.480;13.354;2023-01-19T06:56:22;26.93;;;16.33;;
5026;SDS011;2532;52.480;13.354;2023-01-19T06:58:49;24.93;;;14.77;;
5026;SDS011;2532;52.480;13.354;2023-01-19T07:01:17;25.33;;;15.13;;
5026;SDS011;2532;52.480;13.354;2023-01-19T07:03:44;22.33;;;15.87;;
5026;SDS011;2532;52.480;13.354;2023-01-19T07:06:11;22.30;;;14.33;;
5026;SDS011;2532;52.480;13.354;2023-01-19T07:08:39;28.17;;;16.20;;
5026;SDS011;2532;52.480;13.354;2023-01-19T07:11:08;22.33;;;13.20;;
5026;SDS011;2532;52.480;13.354;2023-01-19T07:13:36;22.67;;;14.73;;
5026;SDS011;2532;52.480;13.354;2023-01-19T07:16:05;24.47;;;16.47;;
5026;SDS011;2532;52.480;13.354;2023-01-19T07:18:33;26.47;;;16.03;;
5026;SDS011;2532;52.480;13.354;2023-01-19T07:21:00;22.67;;;14.73;;
5026;SDS011;2532;52.480;13.354;2023-01-19T07:23:27;26.60;;;14.83;;
5026;SDS011;2532;52.480;13.354;2023-01-19T07:25:56;26.43;;;15.77;;
5026;SDS011;2532;52.480;13.354;2023-01-19T07:28:25;25.17;;;15.97;;
5026;SDS011;2532;52.480;13.354;2023-01-19T07:30:53;21.60;;;15.00;;
5026;SDS011;2532;52.480;13.354;2023-01-19T07:33:20;25.03;;;14.93;;
5026;SDS011;2532;52.480;13.354;2023-01-19T07:35:49;23.13;;;15.10;;
5026;SDS011;2532;52.480;13.354;2023-01-19T07:38:17;24.87;;;15.90;;
5026;SDS011;2532;52.480;13.354;2023-01-19T07:40:44;22.37;;;14.33;;
5026;SDS011;2532;52.480;13.354;2023-01-19T07:43:13;24.47;;;15.67;;
5026;SDS011;2532;52.480;13.354;2023-01-19T07:45:41;22.07;;;14.97;;
5026;SDS011;2532;52.480;13.354;2023-01-19T07:48:08;23.80;;;15.90;;
5026;SDS011;2532;52.480;13.354;2023-01-19T07:50:36;21.93;;;15.30;;
5026;SDS011;2532;52.480;13.354;2023-01-19T07:53:03;24.90;;;13.90;;
5026;SDS011;2532;52.480;13.354;2023-01-19T07:55:31;21.40;;;14.47;;
5026;SDS011;2532;52.480;13.354;2023-01-19T07:57:58;21.90;;;14.20;;
5026;SDS011;2532;52.480;13.354;2023-01-19T08:00:29;21.40;;;13.83;;
5026;SDS011;2532;52.480;13.354;2023-01-19T08:02:57;21.13;;;13.60;;
5026;SDS011;2532;52.480;13.354;2023-01-19T08:05:26;26.57;;;14.77;;
5026;SDS011;2532;52.480;13.354;2023-01-19T08:07:54;26.63;;;14.00;;
5026;SDS011;2532;52.480;13.354;2023-01-19T08:10:23;23.87;;;15.20;;
5026;SDS011;2532;52.480;13.354;2023-01-19T08:12:51;23.10;;;13.33;;
5026;SDS011;2532;52.480;13.354;2023-01-19T08:15:18;23.43;;;13.80;;
5026;SDS011;2532;52.480;13.354;2023-01-19T08:17:54;30.03;;;16.40;;
5026;SDS011;2532;52.480;13.354;2023-01-19T08:20:22;19.30;;;13.40;;
5026;SDS011;2532;52.480;13.354;2023-01-19T08:22:49;23.27;;;13.57;;
5026;SDS011;2532;52.480;13.354;2023-01-19T08:25:23;25.00;;;13.00;;
5026;SDS011;2532;52.480;13.354;2023-01-19T08:27:52;19.70;;;13.33;;
5026;SDS011;2532;52.480;13.354;2023-01-19T08:30:21;20.50;;;13.47;;
5026;SDS011;2532;52.480;13.354;2023-01-19T08:32:50;17.00;;;12.07;;
5026;SDS011;2532;52.480;13.354;2023-01-19T08:35:19;17.17;;;12.33;;
5026;SDS011;2532;52.480;13.354;2023-01-19T08:37:46;17.20;;;12.63;;
5026;SDS011;2532;52.480;13.354;2023-01-19T08:40:13;20.63;;;12.00;;
5026;SDS011;2532;52.480;13.354;2023-01-19T08:42:42;19.83;;;13.37;;
5026;SDS011;2532;52.480;13.354;2023-01-19T08:45:09;20.13;;;13.33;;
5026;SDS011;2532;52.480;13.354;2023-01-19T08:47:39;17.57;;;12.17;;
5026;SDS011;2532;52.480;13.354;2023-01-19T08:50:06;22.03;;;11.80;;
5026;SDS011;2532;52.480;13.354;2023-01-19T08:52:36;17.03;;;11.00;;
5026;SDS011;2532;52.480;13.354;2023-01-19T08:55:03;17.97;;;12.50;;
5026;SDS011;2532;52.480;13.354;2023-01-19T08:57:31;19.53;;;12.03;;
5026;SDS011;2532;52.480;13.354;2023-01-19T08:59:58;18.43;;;12.17;;
5026;SDS011;2532;52.480;13.354;2023-01-19T09:02:24;15.57;;;10.63;;
5026;SDS011;2532;52.480;13.354;2023-01-19T09:04:51;16.30;;;11.10;;
5026;SDS011;2532;52.480;13.354;2023-01-19T09:07:18;18.57;;;11.80;;
5026;SDS011;2532;52.480;13.354;2023-01-19T09:09:47;15.13;;;10.37;;
5026;SDS011;2532;52.480;13.354;2023-01-19T09:12:14;21.57;;;11.63;;
5026;SDS011;2532;52.480;13.354;2023-01-19T09:14:41;16.33;;;11.00;;
5026;SDS011;2532;52.480;13.354;2023-01-19T09:17:08;20.00;;;12.27;;
5026;SDS011;2532;52.480;13.354;2023-01-19T09:19:34;16.87;;;11.20;;
5026;SDS011;2532;52.480;13.354;2023-01-19T09:22:01;21.00;;;11.83;;
5026;SDS011;2532;52.480;13.354;2023-01-19T09:24:29;18.70;;;11.97;;
5026;SDS011;2532;52.480;13.354;2023-01-19T09:27:00;17.90;;;11.40;;
5026;SDS011;2532;52.480;13.354;2023-01-19T09:29:27;18.17;;;11.80;;
5026;SDS011;2532;52.480;13.354;2023-01-19T09:31:54;18.30;;;11.20;;
5026;SDS011;2532;52.480;13.354;2023-01-19T09:34:21;16.03;;;9.93;;
5026;SDS011;2532;52.480;13.354;2023-01-19T09:36:49;17.93;;;10.60;;
5026;SDS011;2532;52.480;13.354;2023-01-19T09:39:16;18.40;;;11.43;;
5026;SDS011;2532;52.480;13.354;2023-01-19T09:41:47;20.83;;;12.20;;
5026;SDS011;2532;52.480;13.354;2023-01-19T09:44:25;17.10;;;11.37;;
5026;SDS011;2532;52.480;13.354;2023-01-19T09:46:54;18.10;;;10.73;;
5026;SDS011;2532;52.480;13.354;2023-01-19T09:49:25;16.23;;;10.17;;
5026;SDS011;2532;52.480;13.354;2023-01-19T09:51:57;23.63;;;10.77;;
5026;SDS011;2532;52.480;13.354;2023-01-19T09:54:27;14.17;;;10.00;;
5026;SDS011;2532;52.480;13.354;2023-01-19T09:56:59;17.60;;;9.33;;
5026;SDS011;2532;52.480;13.354;2023-01-19T09:59:29;17.33;;;8.80;;
5026;SDS011;2532;52.480;13.354;2023-01-19T10:02:01;18.80;;;9.27;;
5026;SDS011;2532;52.480;13.354;2023-01-19T10:04:45;15.00;;;9.07;;
5026;SDS011;2532;52.480;13.354;2023-01-19T10:07:24;18.00;;;8.97;;
5026;SDS011;2532;52.480;13.354;2023-01-19T10:10:08;16.20;;;8.37;;
5026;SDS011;2532;52.480;13.354;2023-01-19T10:12:48;12.80;;;7.93;;
5026;SDS011;2532;52.480;13.354;2023-01-19T10:15:27;14.27;;;9.67;;
5026;SDS011;2532;52.480;13.354;2023-01-19T10:18:15;19.93;;;10.37;;
5026;SDS011;2532;52.480;13.354;2023-01-19T10:20:47;13.20;;;8.97;;
5026;SDS011;2532;52.480;13.354;2023-01-19T10:23:28;12.47;;;9.33;;
5026;SDS011;2532;52.480;13.354;2023-01-19T10:26:04;14.80;;;9.33;;
5026;SDS011;2532;52.480;13.354;2023-01-19T10:28:35;17.20;;;8.43;;
5026;SDS011;2532;52.480;13.354;2023-01-19T10:31:05;11.27;;;7.20;;
5026;SDS011;2532;52.480;13.354;2023-01-19T10:33:33;12.67;;;8.07;;
5026;SDS011;2532;52.480;13.354;2023-01-19T10:36:04;15.33;;;9.93;;
5026;SDS011;2532;52.480;13.354;2023-01-19T10:38:41;14.47;;;8.13;;
5026;SDS011;2532;52.480;13.354;2023-01-19T10:41:10;13.40;;;7.80;;
5026;SDS011;2532;52.480;13.354;2023-01-19T10:43:41;14.00;;;8.63;;
5026;SDS011;2532;52.480;13.354;2023-01-19T10:46:19;12.27;;;8.13;;
5026;SDS011;2532;52.480;13.354;2023-01-19T10:48:59;14.40;;;8.37;;
5026;SDS011;2532;52.480;13.354;2023-01-19T10:51:27;13.77;;;8.07;;
5026;SDS011;2532;52.480;13.354;2023-01-19T10:53:56;15.10;;;8.33;;
5026;SDS011;2532;52.480;13.354;2023-01-19T10:56:26;16.60;;;9.50;;
5026;SDS011;2532;52.480;13.354;2023-01-19T10:58:57;14.03;;;8.40;;
5026;SDS011;2532;52.480;13.354;2023-01-19T11:01:28;14.70;;;8.53;;
5026;SDS011;2532;52.480;13.354;2023-01-19T11:04:00;15.57;;;8.13;;
5026;SDS011;2532;52.480;13.354;2023-01-19T11:06:46;15.80;;;9.00;;
5026;SDS011;2532;52.480;13.354;2023-01-19T11:09:16;12.53;;;8.50;;
5026;SDS011;2532;52.480;13.354;2023-01-19T11:11:46;22.83;;;9.23;;
5026;SDS011;2532;52.480;13.354;2023-01-19T11:14:16;10.37;;;7.90;;
5026;SDS011;2532;52.480;13.354;2023-01-19T11:16:47;14.07;;;7.70;;
5026;SDS011;2532;52.480;13.354;2023-01-19T11:19:18;14.00;;;8.10;;
5026;SDS011;2532;52.480;13.354;2023-01-19T11:21:49;23.90;;;9.60;;
5026;SDS011;2532;52.480;13.354;2023-01-19T11:24:17;17.47;;;9.53;;
5026;SDS011;2532;52.480;13.354;2023-01-19T11:26:45;14.53;;;9.20;;
5026;SDS011;2532;52.480;13.354;2023-01-19T11:29:15;12.63;;;6.90;;
5026;SDS011;2532;52.480;13.354;2023-01-19T11:31:47;14.30;;;8.87;;
5026;SDS011;2532;52.480;13.354;2023-01-19T11:34:22;13.20;;;8.37;;
5026;SDS011;2532;52.480;13.354;2023-01-19T11:36:54;16.00;;;9.77;;
5026;SDS011;2532;52.480;13.354;2023-01-19T11:39:23;15.27;;;8.20;;
5026;SDS011;2532;52.480;13.354;2023-01-19T11:41:53;13.70;;;8.33;;
5026;SDS011;2532;52.480;13.354;2023-01-19T11:44:22;13.60;;;8.27;;
5026;SDS011;2532;52.480;13.354;2023-01-19T11:46:54;14.37;;;8.73;;
5026;SDS011;2532;52.480;13.354;2023-01-19T11:49:26;16.53;;;8.90;;
5026;SDS011;2532;52.480;13.354;2023-01-19T11:52:03;14.37;;;9.07;;
5026;SDS011;2532;52.480;13.354;2023-01-19T11:54:37;16.30;;;9.40;;
5026;SDS011;2532;52.480;13.354;2023-01-19T11:57:12;15.87;;;8.80;;
5026;SDS011;2532;52.480;13.354;2023-01-19T11:59:41;15.00;;;8.60;;
5026;SDS011;2532;52.480;13.354;2023-01-19T12:02:13;13.03;;;8.80;;
5026;SDS011;2532;52.480;13.354;2023-01-19T12:04:45;13.30;;;8.10;;
5026;SDS011;2532;52.480;13.354;2023-01-19T12:07:15;12.17;;;8.60;;
5026;SDS011;2532;52.480;13.354;2023-01-19T12:09:49;14.53;;;8.77;;
5026;SDS011;2532;52.480;13.354;2023-01-19T12:12:23;15.87;;;9.43;;
5026;SDS011;2532;52.480;13.354;2023-01-19T12:14:55;17.37;;;9.20;;
5026;SDS011;2532;52.480;13.354;2023-01-19T12:17:28;12.30;;;8.10;;
5026;SDS011;2532;52.480;13.354;2023-01-19T12:20:00;11.90;;;7.60;;
5026;SDS011;2532;52.480;13.354;2023-01-19T12:22:33;11.50;;;7.87;;
5026;SDS011;2532;52.480;13.354;2023-01-19T12:25:09;15.80;;;8.80;;
5026;SDS011;2532;52.480;13.354;2023-01-19T12:27:41;13.37;;;8.60;;
5026;SDS011;2532;52.480;13.354;2023-01-19T12:30:10;14.63;;;9.00;;
5026;SDS011;2532;52.480;13.354;2023-01-19T12:32:45;12.83;;;8.63;;
5026;SDS011;2532;52.480;13.354;2023-01-19T12:38:22;18.83;;;8.97;;
5026;SDS011;2532;52.480;13.354;2023-01-19T12:41:20;14.80;;;7.67;;
5026;SDS011;2532;52.480;13.354;2023-01-19T12:46:49;16.00;;;8.90;;
5026;SDS011;2532;52.480;13.354;2023-01-19T12:49:27;11.40;;;8.23;;
5026;SDS011;2532;52.480;13.354;2023-01-19T12:54:57;10.87;;;7.70;;
5026;SDS011;2532;52.480;13.354;2023-01-19T12:57:29;15.23;;;8.87;;
5026;SDS011;2532;52.480;13.354;2023-01-19T12:59:59;16.30;;;9.47;;
5026;SDS011;2532;52.480;13.354;2023-01-19T13:05:18;15.87;;;9.47;;
5026;SDS011;2532;52.480;13.354;2023-01-19T13:08:12;16.40;;;9.87;;
5026;SDS011;2532;52.480;13.354;2023-01-19T13:13:41;16.90;;;10.23;;
5026;SDS011;2532;52.480;13.354;2023-01-19T13:19:14;20.13;;;10.70;;
5026;SDS011;2532;52.480;13.354;2023-01-19T13:21:45;18.40;;;10.57;;
5026;SDS011;2532;52.480;13.354;2023-01-19T13:24:14;16.30;;;10.47;;
5026;SDS011;2532;52.480;13.354;2023-01-19T13:26:51;20.17;;;10.20;;
5026;SDS011;2532;52.480;13.354;2023-01-19T13:29:23;13.80;;;9.80;;
5026;SDS011;2532;52.480;13.354;2023-01-19T13:31:55;16.50;;;9.90;;
5026;SDS011;2532;52.480;13.354;2023-01-19T13:34:27;15.20;;;10.10;;
5026;SDS011;2532;52.480;13.354;2023-01-19T13:36:58;17.23;;;11.67;;
5026;SDS011;2532;52.480;13.354;2023-01-19T13:39:26;16.90;;;10.40;;
5026;SDS011;2532;52.480;13.354;2023-01-19T13:41:56;17.90;;;11.00;;
5026;SDS011;2532;52.480;13.354;2023-01-19T13:44:27;16.70;;;11.70;;
5026;SDS011;2532;52.480;13.354;2023-01-19T13:46:56;17.60;;;10.23;;
5026;SDS011;2532;52.480;13.354;2023-01-19T13:49:27;19.67;;;10.77;;
5026;SDS011;2532;52.480;13.354;2023-01-19T13:52:06;18.37;;;10.30;;
5026;SDS011;2532;52.480;13.354;2023-01-19T13:54:45;14.43;;;9.90;;
5026;SDS011;2532;52.480;13.354;2023-01-19T13:57:20;14.57;;;10.10;;
5026;SDS011;2532;52.480;13.354;2023-01-19T13:59:59;14.80;;;10.70;;
5026;SDS011;2532;52.480;13.354;2023-01-19T14:02:30;17.33;;;10.20;;
5026;SDS011;2532;52.480;13.354;2023-01-19T14:04:57;17.27;;;10.97;;
5026;SDS011;2532;52.480;13.354;2023-01-19T14:07:38;16.87;;;10.70;;
5026;SDS011;2532;52.480;13.354;2023-01-19T14:10:06;18.23;;;10.67;;
5026;SDS011;2532;52.480;13.354;2023-01-19T14:12:38;20.40;;;11.83;;
5026;SDS011;2532;52.480;13.354;2023-01-19T14:15:06;19.73;;;10.57;;
5026;SDS011;2532;52.480;13.354;2023-01-19T14:17:38;17.20;;;10.47;;
5026;SDS011;2532;52.480;13.354;2023-01-19T14:22:56;19.10;;;11.00;;
5026;SDS011;2532;52.480;13.354;2023-01-19T14:25:26;18.77;;;10.93;;
5026;SDS011;2532;52.480;13.354;2023-01-19T14:30:53;17.37;;;10.97;;
5026;SDS011;2532;52.480;13.354;2023-01-19T14:33:39;18.70;;;11.40;;
5026;SDS011;2532;52.480;13.354;2023-01-19T14:36:08;17.30;;;10.00;;
5026;SDS011;2532;52.480;13.354;2023-01-19T14:38:53;17.53;;;11.07;;
5026;SDS011;2532;52.480;13.354;2023-01-19T14:41:24;18.17;;;12.23;;
5026;SDS011;2532;52.480;13.354;2023-01-19T14:43:53;15.93;;;11.20;;
5026;SDS011;2532;52.480;13.354;2023-01-19T14:46:21;17.77;;;11.60;;
5026;SDS011;2532;52.480;13.354;2023-01-19T14:49:15;23.57;;;12.33;;
5026;SDS011;2532;52.480;13.354;2023-01-19T14:51:45;15.97;;;10.93;;
5026;SDS011;2532;52.480;13.354;2023-01-19T14:54:16;19.17;;;11.80;;
5026;SDS011;2532;52.480;13.354;2023-01-19T14:56:44;18.67;;;11.93;;
5026;SDS011;2532;52.480;13.354;2023-01-19T14:59:11;23.87;;;12.30;;
5026;SDS011;2532;52.480;13.354;2023-01-19T15:01:38;26.00;;;12.13;;
5026;SDS011;2532;52.480;13.354;2023-01-19T15:04:08;18.70;;;11.83;;
5026;SDS011;2532;52.480;13.354;2023-01-19T15:06:36;19.13;;;11.90;;
5026;SDS011;2532;52.480;13.354;2023-01-19T15:09:05;24.10;;;13.17;;
5026;SDS011;2532;52.480;13.354;2023-01-19T15:11:36;18.70;;;11.37;;
5026;SDS011;2532;52.480;13.354;2023-01-19T15:14:03;21.03;;;11.93;;
5026;SDS011;2532;52.480;13.354;2023-01-19T15:16:30;20.40;;;11.80;;
5026;SDS011;2532;52.480;13.354;2023-01-19T15:19:01;19.47;;;11.60;;
5026;SDS011;2532;52.480;13.354;2023-01-19T15:21:33;20.27;;;12.23;;